Terminal Aerodrome Forecast
Issued by NWS

Home | Current Version | Previous Version | Text Only | Print | Product List | Glossary Off
Versions: 1 2 3 4 5 6 7 8 9 10 11 12 13 14

638
FTUS45 KGGW 262222 AAA
TAFSDY
TAF AMD
KSDY 262222Z 2622/2718 07007KT P6SM VCSH SCT010 BKN015 OVC025
     FM270100 08008KT 5SM -RA BR OVC010
     FM271000 03005KT P6SM VCSH OVC020
     FM271600 05008KT 4SM -RA BR OVC008
      AMD LTD TO CLD VIS AND WIND=

USA.gov is the U.S. government's official web portal to all federal, state and local government web resources and services.